Time;durP1;ratioP1;P1;durP2;ratioP2;P2;SDS_P1;SDS_P2;PMS_P1;PMS_P2;Temp;Humidity;BMP_temperature;BMP_pressure;BME280_temperature;BME280_humidity;BME280_pressure;Samples;Min_cycle;Max_cycle;Signal;HPM_P1;HPM_P2
2023/09/07 00:02:12;;;;;;;2.63;2.28;;;16.30;99.90;16.40;101344.00;;;;5017133;27;90961;-68
2023/09/07 00:04:37;;;;;;;3.05;2.53;;;16.30;99.90;16.40;101339.00;;;;5028349;27;118424;-69
2023/09/07 00:07:03;;;;;;;3.65;3.05;;;16.30;99.90;16.40;101336.00;;;;5027698;27;110399;-69
2023/09/07 00:09:29;;;;;;;2.67;2.22;;;16.30;99.90;16.30;101334.00;;;;5029998;27;107631;-68
2023/09/07 00:11:54;;;;;;;4.80;3.08;;;16.30;99.90;16.30;101341.00;;;;5032120;27;105398;-68
2023/09/07 00:14:20;;;;;;;4.57;3.17;;;16.30;99.90;16.30;101337.00;;;;5031122;27;107974;-68
2023/09/07 00:16:46;;;;;;;4.07;2.90;;;16.30;99.90;16.30;101337.00;;;;5026827;27;106658;-68
2023/09/07 00:19:11;;;;;;;3.15;2.83;;;16.20;99.90;16.30;101349.00;;;;5028628;27;87292;-68
2023/09/07 00:21:37;;;;;;;3.15;2.85;;;16.20;99.90;16.20;101335.00;;;;5032366;27;116734;-69
2023/09/07 00:24:05;;;;;;;3.40;2.83;;;16.20;99.90;16.20;101344.00;;;;5032988;27;118002;-68
2023/09/07 00:26:31;;;;;;;3.47;3.08;;;16.10;99.90;16.20;101343.00;;;;5030904;27;88791;-68
2023/09/07 00:28:56;;;;;;;3.03;2.53;;;16.10;99.90;16.20;101343.00;;;;5032699;27;101060;-69
2023/09/07 00:31:22;;;;;;;3.38;2.47;;;16.10;99.90;16.10;101337.00;;;;5028510;27;118385;-69
2023/09/07 00:33:48;;;;;;;3.33;3.03;;;16.10;99.90;16.10;101347.00;;;;5027247;27;118667;-68
2023/09/07 00:36:13;;;;;;;4.05;3.50;;;16.10;99.90;16.10;101350.00;;;;5029639;27;110436;-69
2023/09/07 00:38:40;;;;;;;2.50;2.25;;;16.10;99.90;16.10;101346.00;;;;5032154;27;109032;-68
2023/09/07 00:41:05;;;;;;;5.00;3.08;;;16.10;99.90;16.10;101332.00;;;;5032506;27;88678;-68
2023/09/07 00:43:31;;;;;;;2.78;2.58;;;16.10;99.90;16.10;101339.00;;;;5026463;27;116893;-68
2023/09/07 00:45:57;;;;;;;5.63;3.03;;;16.10;99.90;16.10;101337.00;;;;5024800;27;109937;-69
2023/09/07 00:48:22;;;;;;;3.47;2.67;;;16.00;99.90;16.10;101332.00;;;;5017365;27;92246;-69
2023/09/07 00:50:48;;;;;;;3.50;3.20;;;16.10;99.90;16.20;101338.00;;;;5027659;27;106987;-68
2023/09/07 00:53:14;;;;;;;4.30;3.63;;;16.10;99.90;16.20;101337.00;;;;5028977;27;89622;-69
2023/09/07 00:55:40;;;;;;;6.32;3.22;;;16.10;99.90;16.10;101338.00;;;;5028565;27;109550;-68
2023/09/07 00:58:06;;;;;;;3.17;2.65;;;16.10;99.90;16.10;101337.00;;;;5007267;27;91479;-68
2023/09/07 01:00:34;;;;;;;3.08;2.78;;;16.10;99.90;16.20;101329.00;;;;5006005;27;88113;-68
2023/09/07 01:03:00;;;;;;;3.58;2.92;;;16.10;99.90;16.10;101324.00;;;;5023834;27;87892;-67
2023/09/07 01:05:37;;;;;;;2.50;2.30;;;16.10;99.90;16.10;101333.00;;;;5026361;27;88593;-68
2023/09/07 01:08:26;;;;;;;5.45;3.45;;;16.10;99.90;16.10;101323.00;;;;5006735;27;100231;-69
2023/09/07 01:10:52;;;;;;;7.40;2.70;;;16.00;99.90;16.10;101325.00;;;;4999053;27;89872;-68
2023/09/07 01:13:19;;;;;;;4.22;3.38;;;16.00;99.90;16.10;101316.00;;;;5022655;27;116406;-67
2023/09/07 01:15:46;;;;;;;3.33;2.60;;;16.00;99.90;16.00;101324.00;;;;5026521;27;89092;-67
2023/09/07 01:18:12;;;;;;;3.15;2.75;;;16.00;99.90;16.00;101311.00;;;;5022629;27;87777;-67
2023/09/07 01:20:41;;;;;;;3.83;3.25;;;16.00;99.90;16.00;101316.00;;;;5004648;27;116925;-68
2023/09/07 01:23:07;;;;;;;5.70;3.28;;;16.00;99.90;16.00;101310.00;;;;5022915;27;117515;-68
2023/09/07 01:25:34;;;;;;;3.05;2.65;;;15.90;99.90;15.90;101320.00;;;;5011913;27;88053;-68
2023/09/07 01:28:00;;;;;;;3.65;2.70;;;15.90;99.90;15.90;101316.00;;;;5009929;27;107544;-68
2023/09/07 01:30:28;;;;;;;5.13;3.08;;;15.90;99.90;15.90;101319.00;;;;5025895;27;118262;-68
2023/09/07 01:32:54;;;;;;;3.88;2.63;;;15.90;99.90;15.90;101318.00;;;;5028586;27;88671;-68
2023/09/07 01:35:21;;;;;;;4.20;3.13;;;15.90;99.90;15.90;101322.00;;;;5033694;27;87966;-67
2023/09/07 01:37:48;;;;;;;5.03;3.97;;;15.80;99.90;15.90;101314.00;;;;5012942;27;89170;-67
2023/09/07 01:40:13;;;;;;;4.50;2.55;;;15.80;99.90;15.80;101314.00;;;;5029233;27;108970;-68
2023/09/07 01:42:39;;;;;;;2.92;2.50;;;15.80;99.90;15.80;101321.00;;;;5030415;27;109991;-67
2023/09/07 01:45:06;;;;;;;4.75;3.22;;;15.80;99.90;15.80;101322.00;;;;5029927;27;111156;-68
2023/09/07 01:47:31;;;;;;;4.22;2.65;;;15.70;99.90;15.80;101317.00;;;;5025600;27;88174;-67
2023/09/07 01:49:57;;;;;;;7.78;3.22;;;15.70;99.90;15.80;101321.00;;;;5025399;27;119040;-68
2023/09/07 01:52:23;;;;;;;5.50;2.90;;;15.70;99.90;15.70;101322.00;;;;5024234;27;88757;-67
2023/09/07 01:54:48;;;;;;;4.30;3.33;;;15.70;99.90;15.60;101316.00;;;;5025504;27;111144;-67
2023/09/07 01:57:14;;;;;;;3.35;2.67;;;15.60;99.90;15.60;101317.00;;;;5024795;27;87160;-68
2023/09/07 01:59:40;;;;;;;4.07;3.50;;;15.60;99.90;15.60;101319.00;;;;5023795;27;118436;-68
2023/09/07 02:02:05;;;;;;;5.05;2.38;;;15.50;99.90;15.50;101314.00;;;;5023787;27;117117;-68
2023/09/07 02:04:31;;;;;;;4.82;3.55;;;15.50;99.90;15.50;101321.00;;;;5028952;27;109781;-68
2023/09/07 02:06:57;;;;;;;2.88;2.33;;;15.40;99.90;15.40;101316.00;;;;5024344;27;102098;-68
2023/09/07 02:09:22;;;;;;;3.40;2.45;;;15.40;99.90;15.40;101316.00;;;;5022641;27;118200;-68
2023/09/07 02:11:48;;;;;;;4.57;3.65;;;15.40;99.90;15.40;101318.00;;;;5024703;27;103480;-68
2023/09/07 02:14:14;;;;;;;4.00;3.35;;;15.40;99.90;15.40;101327.00;;;;5025156;27;109859;-68
2023/09/07 02:16:39;;;;;;;3.85;2.80;;;15.30;99.90;15.30;101324.00;;;;5011534;27;89433;-68
2023/09/07 02:19:09;;;;;;;3.63;2.55;;;15.30;99.90;15.30;101324.00;;;;5025750;27;117302;-68
2023/09/07 02:21:34;;;;;;;2.88;2.60;;;15.30;99.90;15.30;101318.00;;;;5027015;27;88287;-68
2023/09/07 02:24:00;;;;;;;3.22;2.53;;;15.30;99.90;15.30;101316.00;;;;5003546;27;109755;-67
2023/09/07 02:26:25;;;;;;;3.15;2.83;;;15.30;99.90;15.20;101320.00;;;;5021146;27;107776;-68
2023/09/07 02:28:51;;;;;;;3.10;2.80;;;15.20;99.90;15.20;101314.00;;;;5026413;27;118116;-67
2023/09/07 02:31:17;;;;;;;4.95;3.70;;;15.20;99.90;15.20;101325.00;;;;5026684;27;88943;-67
2023/09/07 02:33:42;;;;;;;3.25;2.78;;;15.20;99.90;15.20;101323.00;;;;5024374;27;96190;-67
2023/09/07 02:36:08;;;;;;;3.80;2.30;;;15.10;99.90;15.10;101325.00;;;;5023526;27;108422;-67
2023/09/07 02:38:34;;;;;;;4.75;2.60;;;15.10;99.90;15.10;101322.00;;;;5020823;27;107272;-67
2023/09/07 02:41:01;;;;;;;3.40;2.65;;;15.10;99.90;15.10;101320.00;;;;5026980;27;116199;-68
2023/09/07 02:43:26;;;;;;;3.15;2.53;;;15.10;99.90;15.00;101317.00;;;;5026746;27;87739;-67
2023/09/07 02:45:52;;;;;;;3.05;2.17;;;15.00;99.90;15.00;101320.00;;;;5022296;27;109640;-68
2023/09/07 02:48:17;;;;;;;3.67;2.95;;;15.00;99.90;15.00;101327.00;;;;5010171;27;117516;-67
2023/09/07 02:50:48;;;;;;;4.90;3.25;;;15.00;99.90;14.90;101318.00;;;;5021513;27;89961;-68
2023/09/07 02:53:14;;;;;;;4.60;3.13;;;14.90;99.90;14.90;101325.00;;;;5025676;27;88760;-67
2023/09/07 02:55:40;;;;;;;6.22;2.60;;;14.90;99.90;14.80;101320.00;;;;5021619;27;107981;-69
2023/09/07 02:58:05;;;;;;;5.40;3.03;;;14.90;99.90;14.80;101332.00;;;;5025924;27;115558;-68
2023/09/07 03:00:31;;;;;;;4.50;3.05;;;14.80;99.90;14.80;101317.00;;;;5027349;27;116201;-68
2023/09/07 03:02:57;;;;;;;3.78;2.95;;;14.80;99.90;14.80;101326.00;;;;5023689;27;110345;-67
2023/09/07 03:05:22;;;;;;;3.78;3.22;;;14.80;99.90;14.80;101321.00;;;;5025754;27;99781;-68
2023/09/07 03:07:48;;;;;;;4.43;3.45;;;14.70;99.90;14.70;101327.00;;;;5024221;27;117881;-69
2023/09/07 03:10:14;;;;;;;4.28;3.42;;;15.00;99.90;14.70;101328.00;;;;5024496;27;117703;-67
2023/09/07 03:12:40;;;;;;;4.38;3.13;;;14.70;99.90;14.70;101325.00;;;;5020663;27;109593;-67
2023/09/07 03:15:06;;;;;;;3.63;3.03;;;14.60;99.90;14.70;101324.00;;;;5019101;27;109065;-68
2023/09/07 03:17:32;;;;;;;6.00;3.97;;;14.70;99.90;14.70;101330.00;;;;5024081;27;109607;-68
2023/09/07 03:19:58;;;;;;;5.07;4.57;;;14.60;99.90;14.70;101323.00;;;;5024821;27;117951;-68
2023/09/07 03:22:24;;;;;;;4.32;3.92;;;14.60;99.90;14.60;101329.00;;;;5022878;27;88055;-68
2023/09/07 03:24:51;;;;;;;4.28;3.65;;;14.60;99.90;14.60;101324.00;;;;4992062;27;97581;-68
2023/09/07 03:27:16;;;;;;;4.55;2.83;;;14.60;99.90;14.60;101332.00;;;;5026449;27;109920;-68
2023/09/07 03:29:44;;;;;;;4.38;3.50;;;14.60;99.90;14.60;101332.00;;;;5031210;27;87800;-67
2023/09/07 03:32:10;;;;;;;4.57;3.22;;;14.50;99.90;14.50;101325.00;;;;5028367;27;87821;-67
2023/09/07 03:34:35;;;;;;;4.60;3.55;;;14.50;99.90;14.50;101322.00;;;;5021215;27;99520;-67
2023/09/07 03:37:01;;;;;;;9.20;3.00;;;14.50;99.90;14.50;101326.00;;;;5022727;27;117482;-68
2023/09/07 03:39:26;;;;;;;6.30;4.17;;;14.50;99.90;14.50;101326.00;;;;5022631;27;117770;-67
2023/09/07 03:41:52;;;;;;;5.60;3.10;;;14.50;99.90;14.40;101328.00;;;;5017892;27;105312;-67
2023/09/07 03:44:18;;;;;;;3.30;3.00;;;14.40;99.90;14.40;101331.00;;;;5024628;27;87741;-67
2023/09/07 03:46:44;;;;;;;5.10;3.67;;;14.40;99.90;14.40;101327.00;;;;5022288;27;114196;-69
2023/09/07 03:49:09;;;;;;;5.03;3.47;;;14.40;99.90;14.30;101335.00;;;;5022320;27;116123;-68
2023/09/07 03:51:36;;;;;;;6.85;3.33;;;14.30;99.90;14.30;101326.00;;;;5023253;27;88169;-68
2023/09/07 03:54:01;;;;;;;4.60;2.95;;;14.30;99.90;14.20;101329.00;;;;5021265;27;88056;-68
2023/09/07 03:56:27;;;;;;;4.00;3.60;;;14.20;99.90;14.20;101333.00;;;;5010003;27;116851;-69
2023/09/07 03:58:53;;;;;;;6.63;2.92;;;14.20;99.90;14.10;101333.00;;;;5026172;27;116894;-68
2023/09/07 04:01:18;;;;;;;4.50;3.20;;;14.10;99.90;14.10;101330.00;;;;5020460;27;110679;-68
2023/09/07 04:03:44;;;;;;;4.10;3.60;;;14.10;99.90;14.10;101329.00;;;;4975240;27;109265;-67
2023/09/07 04:06:09;;;;;;;4.70;3.15;;;14.10;99.90;14.00;101342.00;;;;5020062;27;118176;-68
2023/09/07 04:08:35;;;;;;;4.28;3.13;;;14.00;99.90;14.00;101330.00;;;;5025360;27;118824;-68
2023/09/07 04:11:05;;;;;;;3.60;2.80;;;14.00;99.90;14.00;101335.00;;;;5030106;27;87885;-69
2023/09/07 04:13:32;;;;;;;4.17;3.10;;;14.00;99.90;13.90;101334.00;;;;5017340;27;87984;-69
2023/09/07 04:15:58;;;;;;;3.90;3.30;;;13.90;99.90;13.90;101338.00;;;;5024026;27;95843;-69
2023/09/07 04:18:23;;;;;;;5.03;3.33;;;13.90;99.90;13.80;101330.00;;;;5025579;27;117601;-69
2023/09/07 04:20:49;;;;;;;6.95;3.88;;;13.90;99.90;13.80;101342.00;;;;5025933;27;111122;-69
2023/09/07 04:23:24;;;;;;;5.10;3.13;;;13.80;99.90;13.70;101343.00;;;;5025196;27;108827;-67
2023/09/07 04:25:50;;;;;;;5.23;3.50;;;13.70;99.90;13.70;101341.00;;;;5041160;27;117546;-68
2023/09/07 04:28:15;;;;;;;3.80;3.03;;;13.70;99.90;13.70;101339.00;;;;5031037;27;116803;-67
2023/09/07 04:30:42;;;;;;;4.70;3.47;;;13.70;99.90;13.70;101343.00;;;;5027346;27;109919;-67
2023/09/07 04:33:08;;;;;;;3.20;2.90;;;13.70;99.90;13.70;101345.00;;;;5028970;27;88070;-67
2023/09/07 04:35:33;;;;;;;3.80;3.03;;;13.70;99.90;13.60;101338.00;;;;5027885;27;88854;-69
2023/09/07 04:37:59;;;;;;;4.93;3.37;;;13.60;99.90;13.60;101347.00;;;;5033220;27;117668;-68
2023/09/07 04:40:25;;;;;;;4.10;3.37;;;13.60;99.90;13.60;101341.00;;;;5027801;27;87944;-68
2023/09/07 04:42:51;;;;;;;4.37;3.57;;;13.60;99.90;13.60;101349.00;;;;5026221;27;107092;-70
2023/09/07 04:45:17;;;;;;;6.03;4.53;;;13.50;99.90;13.60;101345.00;;;;5006511;27;114055;-68
2023/09/07 04:47:46;;;;;;;4.83;3.47;;;13.50;99.90;13.50;101347.00;;;;5023422;27;88567;-68
2023/09/07 04:50:13;;;;;;;6.83;3.63;;;13.50;99.90;13.50;101356.00;;;;5004143;27;98907;-68
2023/09/07 04:52:39;;;;;;;3.90;3.53;;;13.50;99.90;13.50;101343.00;;;;5005346;27;88039;-68
2023/09/07 04:55:05;;;;;;;6.87;3.73;;;13.50;99.90;13.60;101349.00;;;;5025301;27;90011;-68
2023/09/07 04:57:31;;;;;;;6.40;3.83;;;13.60;99.90;13.70;101347.00;;;;5028411;27;89699;-68
2023/09/07 04:59:56;;;;;;;4.00;3.60;;;13.60;99.90;13.80;101347.00;;;;5016246;27;104292;-68
2023/09/07 05:02:22;;;;;;;3.77;3.37;;;13.70;99.90;13.90;101356.00;;;;5011846;27;107567;-67
2023/09/07 05:04:50;;;;;;;5.03;3.47;;;13.80;99.90;13.90;101352.00;;;;5027371;27;88103;-68
2023/09/07 05:07:15;;;;;;;5.53;4.27;;;13.90;99.90;14.00;101367.00;;;;5029329;27;88287;-67
2023/09/07 05:09:41;;;;;;;6.80;3.70;;;14.00;99.90;14.10;101357.00;;;;5030507;27;109238;-68
2023/09/07 05:12:07;;;;;;;5.60;3.70;;;14.10;99.90;14.20;101367.00;;;;5030515;27;107862;-68
2023/09/07 05:14:32;;;;;;;5.90;3.57;;;14.10;99.90;14.30;101362.00;;;;5030396;27;118731;-68
2023/09/07 05:16:58;;;;;;;5.18;4.18;;;14.20;99.90;14.40;101368.00;;;;5029594;27;115120;-68
2023/09/07 05:19:24;;;;;;;7.95;3.33;;;14.30;99.90;14.50;101376.00;;;;5023779;27;88765;-68
2023/09/07 05:21:49;;;;;;;5.60;4.17;;;14.40;99.90;14.70;101371.00;;;;5029976;27;108317;-67
2023/09/07 05:24:15;;;;;;;4.35;3.95;;;14.60;99.90;14.90;101359.00;;;;5024199;27;88807;-68
2023/09/07 05:26:42;;;;;;;9.18;4.28;;;14.70;99.90;15.00;101369.00;;;;5030697;27;87755;-68
2023/09/07 05:29:08;;;;;;;9.57;4.28;;;14.90;99.90;15.20;101367.00;;;;5030148;27;89150;-69
2023/09/07 05:31:34;;;;;;;4.65;3.65;;;15.10;99.90;15.40;101367.00;;;;5030509;27;108918;-67
2023/09/07 05:34:00;;;;;;;8.07;4.75;;;15.20;99.90;15.60;101371.00;;;;5027620;27;118147;-67
2023/09/07 05:36:27;;;;;;;4.45;4.05;;;15.40;99.90;15.80;101373.00;;;;5025915;27;88679;-68
2023/09/07 05:38:53;;;;;;;4.60;3.53;;;15.70;99.90;16.00;101375.00;;;;5030755;27;87984;-68
2023/09/07 05:41:19;;;;;;;4.95;3.25;;;15.90;99.90;16.20;101377.00;;;;5029624;27;95714;-68
2023/09/07 05:43:44;;;;;;;6.10;3.53;;;16.10;99.90;16.50;101379.00;;;;5021014;27;89686;-67
2023/09/07 05:46:10;;;;;;;6.63;3.92;;;16.30;99.90;16.70;101383.00;;;;5023167;27;115091;-67
2023/09/07 05:48:36;;;;;;;3.90;3.53;;;16.50;99.90;16.90;101380.00;;;;5027916;27;111037;-67
2023/09/07 05:51:01;;;;;;;4.57;3.22;;;16.70;99.90;17.10;101380.00;;;;5021554;27;109927;-67
2023/09/07 05:53:27;;;;;;;3.90;3.20;;;16.90;99.90;17.30;101389.00;;;;5025350;27;117786;-67
2023/09/07 05:55:53;;;;;;;3.35;2.97;;;17.10;99.90;17.50;101390.00;;;;5023806;27;99991;-67
2023/09/07 05:58:19;;;;;;;5.43;3.78;;;17.30;99.90;17.80;101397.00;;;;5026047;27;87878;-67
2023/09/07 06:00:45;;;;;;;7.28;3.85;;;17.60;99.90;17.90;101397.00;;;;5033278;27;87483;-68
2023/09/07 06:03:11;;;;;;;3.80;3.03;;;17.70;99.90;18.10;101394.00;;;;5026422;27;88100;-67
2023/09/07 06:05:38;;;;;;;6.10;3.42;;;17.90;99.90;18.20;101395.00;;;;5009808;27;87820;-68
2023/09/07 06:08:06;;;;;;;4.25;3.20;;;18.00;99.90;18.40;101401.00;;;;5029730;27;88773;-68
2023/09/07 06:10:31;;;;;;;6.93;3.50;;;18.20;99.90;18.60;101400.00;;;;5001627;27;87714;-68
2023/09/07 06:12:57;;;;;;;3.28;2.65;;;18.40;99.90;18.80;101401.00;;;;5026295;27;118105;-69
2023/09/07 06:15:23;;;;;;;12.40;3.03;;;18.60;99.90;19.10;101397.00;;;;5008333;27;88137;-67
2023/09/07 06:17:49;;;;;;;6.22;3.08;;;18.80;99.90;19.20;101403.00;;;;5027561;27;101123;-66
2023/09/07 06:20:15;;;;;;;4.28;3.33;;;19.00;99.90;19.40;101406.00;;;;5027349;27;87781;-67
2023/09/07 06:22:41;;;;;;;6.78;3.10;;;19.20;99.90;19.60;101402.00;;;;5006267;27;109293;-67
2023/09/07 06:25:07;;;;;;;4.43;3.33;;;19.40;99.90;19.80;101405.00;;;;5028323;27;88609;-67
2023/09/07 06:27:33;;;;;;;4.50;3.63;;;19.60;99.90;20.00;101412.00;;;;5026477;27;98364;-67
2023/09/07 06:29:58;;;;;;;4.75;3.65;;;19.80;99.90;20.10;101416.00;;;;5024254;27;107224;-68
2023/09/07 06:32:24;;;;;;;6.10;3.63;;;19.90;99.90;20.30;101409.00;;;;5026658;27;118600;-67
2023/09/07 06:34:50;;;;;;;4.78;3.25;;;20.10;99.90;20.40;101404.00;;;;5024421;27;117143;-67
2023/09/07 06:37:17;;;;;;;3.92;3.28;;;20.20;99.90;20.50;101415.00;;;;5027059;27;109651;-67
2023/09/07 06:39:43;;;;;;;3.30;2.88;;;20.30;99.90;20.60;101419.00;;;;5029186;27;109011;-65
2023/09/07 06:42:12;;;;;;;4.50;3.40;;;20.40;99.90;20.70;101429.00;;;;5026699;27;88822;-67
2023/09/07 06:44:38;;;;;;;10.57;4.40;;;20.50;99.90;20.90;101423.00;;;;5030614;27;87685;-68
2023/09/07 06:47:04;;;;;;;5.57;3.58;;;20.60;99.90;21.10;101422.00;;;;5029006;27;87860;-67
2023/09/07 06:49:30;;;;;;;4.63;3.15;;;20.80;99.90;21.20;101422.00;;;;5025739;27;107254;-67
2023/09/07 06:51:56;;;;;;;2.88;2.63;;;21.00;99.90;21.30;101427.00;;;;5025238;27;88897;-68
2023/09/07 06:54:22;;;;;;;7.57;3.05;;;21.10;99.90;21.50;101433.00;;;;5026353;27;115809;-67
2023/09/07 06:56:48;;;;;;;4.18;2.97;;;21.30;99.90;21.70;101430.00;;;;5013300;27;108923;-66
2023/09/07 06:59:14;;;;;;;3.33;2.53;;;21.50;99.90;22.00;101430.00;;;;5027280;27;87866;-66
2023/09/07 07:01:40;;;;;;;2.58;2.38;;;21.70;99.90;22.30;101430.00;;;;5026739;27;88485;-66
2023/09/07 07:04:06;;;;;;;3.13;2.70;;;22.00;99.90;22.60;101428.00;;;;5023563;27;117742;-67
2023/09/07 07:06:32;;;;;;;6.20;3.58;;;22.30;99.90;22.90;101426.00;;;;5025721;27;87936;-67
2023/09/07 07:08:57;;;;;;;2.78;2.50;;;22.60;99.90;23.20;101431.00;;;;5033599;27;87827;-67
2023/09/07 07:11:23;;;;;;;4.82;2.45;;;22.90;99.90;23.40;101439.00;;;;5025558;27;106222;-67
2023/09/07 07:13:49;;;;;;;4.00;2.97;;;23.10;99.90;23.70;101436.00;;;;5025486;27;116787;-66
2023/09/07 07:16:16;;;;;;;4.57;2.90;;;23.40;99.00;23.90;101437.00;;;;5023508;27;110503;-65
2023/09/07 07:18:42;;;;;;;3.40;2.85;;;23.60;98.30;24.10;101430.00;;;;5023884;27;99788;-67
2023/09/07 07:21:08;;;;;;;3.47;2.65;;;23.80;98.00;24.40;101434.00;;;;5023963;27;88940;-68
2023/09/07 07:23:35;;;;;;;3.45;2.72;;;24.10;96.80;24.60;101435.00;;;;5025509;27;88805;-68
2023/09/07 07:26:00;;;;;;;4.00;2.80;;;24.30;96.50;24.80;101436.00;;;;5023370;27;102379;-67
2023/09/07 07:28:26;;;;;;;4.10;2.15;;;24.50;95.30;24.90;101444.00;;;;5024059;27;108226;-66
2023/09/07 07:30:53;;;;;;;4.70;2.83;;;24.70;94.80;25.10;101437.00;;;;5022010;27;118137;-68
2023/09/07 07:33:19;;;;;;;3.15;2.45;;;24.80;94.70;25.40;101443.00;;;;5022481;27;89096;-68
2023/09/07 07:35:45;;;;;;;2.47;2.28;;;25.10;94.40;25.70;101445.00;;;;5027436;27;95169;-68
2023/09/07 07:38:14;;;;;;;3.50;2.58;;;25.40;94.20;26.00;101449.00;;;;5023785;27;87025;-68
2023/09/07 07:40:40;;;;;;;3.88;2.55;;;25.60;92.80;26.20;101450.00;;;;5026372;27;88629;-69
2023/09/07 07:43:06;;;;;;;2.38;2.08;;;25.80;92.30;26.40;101445.00;;;;5025033;27;109812;-68
2023/09/07 07:45:36;;;;;;;2.65;2.22;;;26.10;92.10;26.70;101451.00;;;;5026435;27;88769;-68
2023/09/07 07:48:05;;;;;;;5.43;3.78;;;26.40;91.30;26.90;101446.00;;;;5028676;27;87747;-68
2023/09/07 07:50:31;;;;;;;2.60;1.58;;;26.60;90.40;27.10;101439.00;;;;5033205;27;87691;-67
2023/09/07 07:52:57;;;;;;;5.82;3.13;;;26.80;90.20;27.30;101442.00;;;;5027290;27;88912;-68
2023/09/07 07:55:22;;;;;;;3.90;2.20;;;27.00;87.90;27.50;101439.00;;;;5029063;27;109723;-68
2023/09/07 07:57:48;;;;;;;5.20;2.95;;;27.20;86.90;27.70;101440.00;;;;5024903;27;110178;-68
2023/09/07 08:00:14;;;;;;;2.35;2.15;;;27.30;86.40;27.90;101434.00;;;;5031110;27;117847;-67
2023/09/07 08:02:40;;;;;;;2.95;2.42;;;27.60;82.40;27.90;101439.00;;;;5031200;27;112186;-67
2023/09/07 08:05:06;;;;;;;3.30;2.45;;;27.70;80.50;28.00;101441.00;;;;5026810;27;92244;-68
2023/09/07 08:07:32;;;;;;;3.10;2.30;;;27.70;80.70;28.30;101436.00;;;;5029081;27;101518;-68
2023/09/07 08:09:57;;;;;;;3.28;1.70;;;27.90;78.00;28.30;101439.00;;;;5027252;27;118003;-68
2023/09/07 08:12:23;;;;;;;3.00;2.25;;;28.00;75.50;28.30;101431.00;;;;5030292;27;89419;-67
2023/09/07 08:14:49;;;;;;;3.63;2.00;;;28.10;75.00;28.50;101428.00;;;;5028810;27;110433;-67
2023/09/07 08:17:15;;;;;;;1.92;1.77;;;28.20;70.00;28.40;101439.00;;;;5027716;27;108218;-68
2023/09/07 08:19:40;;;;;;;1.90;1.70;;;28.20;70.90;28.50;101444.00;;;;5027876;27;88346;-67
2023/09/07 08:22:06;;;;;;;2.97;1.85;;;28.20;70.60;28.60;101442.00;;;;5028959;27;117469;-69
2023/09/07 08:24:32;;;;;;;4.38;1.75;;;28.30;70.50;28.80;101438.00;;;;5028038;27;87974;-67
2023/09/07 08:27:00;;;;;;;2.35;1.50;;;28.40;70.00;29.00;101441.00;;;;5029273;27;87178;-68
2023/09/07 08:29:26;;;;;;;3.20;1.90;;;28.60;68.30;29.20;101434.00;;;;5026473;27;88692;-67
2023/09/07 08:31:53;;;;;;;1.08;0.90;;;28.80;63.10;29.10;101433.00;;;;5025649;27;88901;-68
2023/09/07 08:34:21;;;;;;;1.55;1.45;;;28.80;63.00;29.10;101433.00;;;;5025797;27;88863;-69
2023/09/07 08:36:49;;;;;;;5.63;1.77;;;28.80;62.90;29.30;101431.00;;;;5017633;27;88001;-68
2023/09/07 08:39:16;;;;;;;2.13;1.35;;;28.90;61.70;29.30;101430.00;;;;5027507;27;88484;-68
2023/09/07 08:41:45;;;;;;;1.95;1.80;;;29.00;60.50;29.50;101427.00;;;;5029488;27;88696;-68
2023/09/07 08:44:11;;;;;;;1.95;1.42;;;29.10;61.20;29.70;101426.00;;;;5028795;27;88202;-67
2023/09/07 08:46:37;;;;;;;2.50;1.38;;;29.30;60.70;29.90;101431.00;;;;5027461;27;88546;-68
2023/09/07 08:49:04;;;;;;;2.20;1.88;;;29.50;58.90;30.00;101432.00;;;;5027201;27;114356;-68
2023/09/07 08:51:31;;;;;;;1.92;1.40;;;29.60;58.20;30.10;101431.00;;;;5029497;27;88604;-70
2023/09/07 08:53:58;;;;;;;2.03;1.63;;;29.70;57.90;30.30;101433.00;;;;5034963;27;88067;-69
2023/09/07 08:56:24;;;;;;;1.60;1.50;;;29.80;58.10;30.50;101432.00;;;;5030810;27;87743;-68
2023/09/07 08:58:50;;;;;;;2.78;1.45;;;30.00;56.10;30.50;101428.00;;;;5015334;27;88878;-70
2023/09/07 09:01:17;;;;;;;3.35;1.67;;;30.10;56.80;30.70;101434.00;;;;5024222;27;115840;-70
2023/09/07 09:03:43;;;;;;;2.67;1.42;;;30.30;56.60;31.00;101435.00;;;;5029559;27;88046;-72
2023/09/07 09:06:10;;;;;;;2.25;1.40;;;30.50;56.30;31.20;101441.00;;;;5026236;27;88241;-70
2023/09/07 09:08:57;;;;;;;1.60;1.33;;;30.70;55.50;31.40;101439.00;;;;5012355;27;103444;-71
2023/09/07 09:11:24;;;;;;;2.22;1.30;;;31.00;54.40;31.70;101433.00;;;;5027972;27;93044;-69
2023/09/07 09:13:52;;;;;;;1.48;1.10;;;31.20;54.00;32.00;101435.00;;;;5025881;27;88009;-72
2023/09/07 09:16:19;;;;;;;2.60;1.30;;;31.40;53.30;32.20;101436.00;;;;5029137;27;87153;-71
2023/09/07 09:18:52;;;;;;;4.00;1.40;;;31.70;51.10;32.20;101433.00;;;;5011349;27;98758;-71
2023/09/07 09:21:22;;;;;;;2.38;1.52;;;31.70;49.80;32.20;101433.00;;;;5008992;27;87891;-71
2023/09/07 09:23:51;;;;;;;1.60;1.50;;;31.70;50.90;32.40;101446.00;;;;5013318;27;88967;-71
2023/09/07 09:26:17;;;;;;;2.85;2.00;;;31.80;50.90;32.50;101436.00;;;;5024481;27;100606;-70
2023/09/07 09:28:44;;;;;;;3.70;1.52;;;32.00;50.50;32.60;101432.00;;;;5007075;27;100520;-68
2023/09/07 09:31:12;;;;;;;2.38;1.42;;;32.10;50.50;32.80;101436.00;;;;5021210;27;87791;-70
2023/09/07 09:33:39;;;;;;;3.00;1.20;;;32.20;50.20;33.00;101436.00;;;;5026512;27;89189;-70
2023/09/07 09:36:06;;;;;;;3.15;2.05;;;32.40;49.40;33.20;101434.00;;;;5027274;27;88547;-69
2023/09/07 09:38:33;;;;;;;2.33;1.35;;;32.60;49.30;33.40;101436.00;;;;5027119;27;111149;-72
2023/09/07 09:40:59;;;;;;;3.22;1.40;;;32.70;49.50;33.70;101431.00;;;;5027186;27;88185;-70
2023/09/07 09:43:26;;;;;;;1.38;1.20;;;33.00;49.30;34.00;101433.00;;;;5023614;27;108738;-70
2023/09/07 09:45:52;;;;;;;2.45;1.50;;;33.20;48.20;34.00;101427.00;;;;5012124;27;87772;-71
2023/09/07 09:48:22;;;;;;;2.33;1.52;;;33.40;47.10;34.00;101429.00;;;;5009031;27;111136;-72
2023/09/07 09:51:00;;;;;;;2.63;1.70;;;33.30;46.50;33.90;101421.00;;;;5008721;27;88307;-71
2023/09/07 09:53:27;;;;;;;2.65;1.33;;;33.30;46.60;33.90;101429.00;;;;5023547;27;98556;-71
2023/09/07 09:55:52;;;;;;;2.17;1.58;;;33.20;45.40;33.70;101421.00;;;;5010770;27;87962;-71
2023/09/07 09:58:18;;;;;;;2.10;1.85;;;33.10;45.90;33.80;101421.00;;;;5025618;27;118462;-71
2023/09/07 10:00:48;;;;;;;3.90;1.88;;;33.10;46.20;34.00;101418.00;;;;5028635;27;87831;-71
2023/09/07 10:03:30;;;;;;;1.58;1.10;;;33.20;45.90;34.20;101424.00;;;;5024217;27;88122;-70
2023/09/07 10:05:56;;;;;;;1.60;1.50;;;33.40;46.20;34.40;101426.00;;;;4997987;27;87222;-70
2023/09/07 10:08:22;;;;;;;3.15;1.60;;;33.60;45.10;34.30;101425.00;;;;5024556;27;88981;-70
2023/09/07 10:10:56;;;;;;;1.70;1.58;;;33.60;44.50;34.60;101430.00;;;;5028094;27;88875;-70
2023/09/07 10:13:33;;;;;;;1.83;1.55;;;33.70;45.30;34.80;101430.00;;;;5023894;27;88806;-70
2023/09/07 10:16:10;;;;;;;2.28;1.63;;;34.00;43.60;34.70;101424.00;;;;5008658;27;87838;-71
2023/09/07 10:18:39;;;;;;;2.22;1.70;;;34.00;42.90;34.80;101424.00;;;;5030510;27;88131;-69
2023/09/07 10:21:06;;;;;;;2.90;1.92;;;34.00;42.90;34.90;101419.00;;;;4993372;27;88676;-71
2023/09/07 10:23:43;;;;;;;2.53;1.70;;;34.10;42.80;35.10;101420.00;;;;5006002;27;101394;-71
2023/09/07 10:26:21;;;;;;;2.63;1.73;;;34.30;41.50;35.00;101430.00;;;;5027031;27;88185;-72
2023/09/07 10:28:49;;;;;;;2.50;1.65;;;34.30;41.60;35.00;101427.00;;;;5025736;27;88673;-71
2023/09/07 10:31:18;;;;;;;2.17;1.90;;;34.30;41.30;34.90;101427.00;;;;5011405;27;88789;-70
2023/09/07 10:33:44;;;;;;;2.05;1.48;;;34.20;41.70;35.10;101417.00;;;;5008123;27;88007;-70
2023/09/07 10:36:25;;;;;;;2.20;1.50;;;34.30;42.60;35.30;101408.00;;;;5025708;27;88187;-70
2023/09/07 10:38:54;;;;;;;1.52;1.35;;;34.50;42.00;35.50;101411.00;;;;5015134;27;88835;-70
2023/09/07 10:41:21;;;;;;;2.00;1.30;;;34.60;41.90;35.70;101414.00;;;;5030431;27;87893;-70